Time;durP1;ratioP1;P1;durP2;ratioP2;P2;SDS_P1;SDS_P2;PMS_P1;PMS_P2;Temp;Humidity;BMP_temperature;BMP_pressure;BME280_temperature;BME280_humidity;BME280_pressure;Samples;Min_cycle;Max_cycle;Signal;HPM_P1;HPM_P2
2023/05/17 00:02:18;;;;;;;;;;;;;;;;;;5036445;28;20252;-21
2023/05/17 00:04:44;;;;;;;;;;;;;;;;;;5036202;28;19925;-21
2023/05/17 00:07:10;;;;;;;;;;;;;;;;;;5036590;28;19909;-19
2023/05/17 00:09:36;;;;;;;;;;;;;;;;;;5036348;28;20374;-21
2023/05/17 00:12:02;;;;;;;;;;;;;;;;;;5036239;28;19909;-20
2023/05/17 00:14:28;;;;;;;;;;;;;;;;;;5036126;28;19924;-20
2023/05/17 00:16:54;;;;;;;;;;;;;;;;;;5036390;28;19936;-21
2023/05/17 00:19:20;;;;;;;;;;;;;;;;;;5036408;28;20251;-21
2023/05/17 00:21:46;;;;;;;;;;;;;;;;;;5036129;28;19909;-21
2023/05/17 00:24:12;;;;;;;;;;;;;;;;;;5036000;28;20233;-20
2023/05/17 00:26:38;;;;;;;;;;;;;;;;;;5036448;28;20362;-20
2023/05/17 00:29:04;;;;;;;;;;;;;;;;;;5036128;28;20332;-24
2023/05/17 00:31:30;;;;;;;;;;;;;;;;;;5035837;28;19924;-21
2023/05/17 00:33:56;;;;;;;;;;;;;;;;;;5035897;28;19943;-22
2023/05/17 00:36:22;;;;;;;;;;;;;;;;;;5035961;28;20320;-20
2023/05/17 00:38:48;;;;;;;;;;;;;;;;;;5035733;28;19910;-20
2023/05/17 00:41:13;;;;;;;;;;;;;;;;;;5035733;28;19909;-20
2023/05/17 00:43:39;;;;;;;;;;;;;;;;;;5035868;28;19971;-22
2023/05/17 00:46:05;;;;;;;;;;;;;;;;;;5035613;28;19909;-23
2023/05/17 00:48:31;;;;;;;;;;;;;;;;;;5035588;28;19909;-22
2023/05/17 00:50:57;;;;;;;;;;;;;;;;;;5035768;28;19913;-19
2023/05/17 00:53:23;;;;;;;;;;;;;;;;;;5035212;28;19970;-19
2023/05/17 00:55:49;;;;;;;;;;;;;;;;;;5035647;28;19909;-20
2023/05/17 00:58:15;;;;;;;;;;;;;;;;;;5035328;28;20271;-23
2023/05/17 01:00:41;;;;;;;;;;;;;;;;;;5034348;28;19913;-22
2023/05/17 01:03:07;;;;;;;;;;;;;;;;;;5035204;28;19952;-22
2023/05/17 01:05:33;;;;;;;;;;;;;;;;;;5035127;28;19932;-20
2023/05/17 01:07:59;;;;;;;;;;;;;;;;;;5035255;28;19949;-20
2023/05/17 01:10:25;;;;;;;;;;;;;;;;;;5035207;28;20408;-20
2023/05/17 01:12:53;;;;;;;;;;;;;;;;;;5034380;28;21263;-22
2023/05/17 01:15:19;;;;;;;;;;;;;;;;;;5035059;28;19996;-19
2023/05/17 01:17:45;;;;;;;;;;;;;;;;;;5035421;28;19913;-21
2023/05/17 01:20:11;;;;;;;;;;;;;;;;;;5035124;28;19975;-22
2023/05/17 01:22:36;;;;;;;;;;;;;;;;;;5035217;28;20332;-20
2023/05/17 01:25:02;;;;;;;;;;;;;;;;;;5034952;28;20259;-21
2023/05/17 01:27:28;;;;;;;;;;;;;;;;;;5035231;28;19913;-21
2023/05/17 01:29:54;;;;;;;;;;;;;;;;;;5034902;28;20300;-20
2023/05/17 01:32:20;;;;;;;;;;;;;;;;;;5034786;28;20310;-19
2023/05/17 01:34:46;;;;;;;;;;;;;;;;;;5035008;28;20398;-22
2023/05/17 01:37:12;;;;;;;;;;;;;;;;;;5034827;28;20332;-21
2023/05/17 01:39:38;;;;;;;;;;;;;;;;;;5035054;28;19909;-20
2023/05/17 01:42:04;;;;;;;;;;;;;;;;;;5034669;28;19913;-22
2023/05/17 01:44:30;;;;;;;;;;;;;;;;;;5034722;28;19909;-22
2023/05/17 01:46:56;;;;;;;;;;;;;;;;;;5034679;28;19916;-22
2023/05/17 01:49:22;;;;;;;;;;;;;;;;;;5034966;28;20209;-22
2023/05/17 01:51:48;;;;;;;;;;;;;;;;;;5034572;28;19913;-21
2023/05/17 01:54:14;;;;;;;;;;;;;;;;;;5034768;28;19939;-21
2023/05/17 01:56:40;;;;;;;;;;;;;;;;;;5034580;28;19909;-21
2023/05/17 01:59:06;;;;;;;;;;;;;;;;;;5034604;28;19949;-18
2023/05/17 02:01:32;;;;;;;;;;;;;;;;;;5034541;28;19932;-21
2023/05/17 02:03:58;;;;;;;;;;;;;;;;;;5034238;28;19917;-22
2023/05/17 02:06:24;;;;;;;;;;;;;;;;;;5036154;28;20070;-22
2023/05/17 02:08:50;;;;;;;;;;;;;;;;;;5037603;28;20356;-21
2023/05/17 02:11:16;;;;;;;;;;;;;;;;;;5038569;28;20006;-20
2023/05/17 02:13:42;;;;;;;;;;;;;;;;;;5038604;28;20344;-20
2023/05/17 02:16:08;;;;;;;;;;;;;;;;;;5038420;28;20016;-21
2023/05/17 02:18:36;;;;;;;;;;;;;;;;;;5038724;28;20214;-20
2023/05/17 02:21:02;;;;;;;;;;;;;;;;;;5038455;28;19915;-21
2023/05/17 02:23:28;;;;;;;;;;;;;;;;;;5038315;28;19913;-20
2023/05/17 02:25:54;;;;;;;;;;;;;;;;;;5038295;28;19967;-22
2023/05/17 02:28:20;;;;;;;;;;;;;;;;;;5038486;28;20362;-20
2023/05/17 02:30:46;;;;;;;;;;;;;;;;;;5037231;28;19920;-22
2023/05/17 02:33:12;;;;;;;;;;;;;;;;;;5038227;28;19932;-20
2023/05/17 02:35:38;;;;;;;;;;;;;;;;;;5038438;28;19915;-22
2023/05/17 02:38:04;;;;;;;;;;;;;;;;;;5038347;28;19959;-21
2023/05/17 02:40:29;;;;;;;;;;;;;;;;;;5037065;28;19928;-19
2023/05/17 02:42:55;;;;;;;;;;;;;;;;;;5037979;28;19952;-22
2023/05/17 02:45:21;;;;;;;;;;;;;;;;;;5036947;28;20264;-23
2023/05/17 02:47:47;;;;;;;;;;;;;;;;;;5037874;28;20260;-20
2023/05/17 02:50:13;;;;;;;;;;;;;;;;;;5037827;28;19909;-22
2023/05/17 02:52:39;;;;;;;;;;;;;;;;;;5037985;28;19957;-22
2023/05/17 02:55:05;;;;;;;;;;;;;;;;;;5037760;28;19920;-20
2023/05/17 02:57:31;;;;;;;;;;;;;;;;;;5036771;28;19909;-20
2023/05/17 02:59:57;;;;;;;;;;;;;;;;;;5036671;28;20229;-19
2023/05/17 03:02:23;;;;;;;;;;;;;;;;;;5036578;28;19909;-21
2023/05/17 03:04:49;;;;;;;;;;;;;;;;;;5037465;28;19921;-20
2023/05/17 03:07:15;;;;;;;;;;;;;;;;;;5037526;28;20213;-22
2023/05/17 03:09:41;;;;;;;;;;;;;;;;;;5037488;28;19910;-21
2023/05/17 03:12:07;;;;;;;;;;;;;;;;;;5037394;28;19978;-21
2023/05/17 03:14:33;;;;;;;;;;;;;;;;;;5037407;28;19916;-20
2023/05/17 03:16:59;;;;;;;;;;;;;;;;;;5037280;28;19941;-20
2023/05/17 03:19:25;;;;;;;;;;;;;;;;;;5037315;28;19909;-23
2023/05/17 03:21:51;;;;;;;;;;;;;;;;;;5037234;28;19920;-19
2023/05/17 03:24:17;;;;;;;;;;;;;;;;;;5037259;28;19909;-20
2023/05/17 03:26:43;;;;;;;;;;;;;;;;;;5037142;28;19990;-20
2023/05/17 03:29:09;;;;;;;;;;;;;;;;;;5037116;28;19909;-20
2023/05/17 03:31:35;;;;;;;;;;;;;;;;;;5037056;28;20256;-22
2023/05/17 03:34:01;;;;;;;;;;;;;;;;;;5036898;28;19924;-22
2023/05/17 03:36:27;;;;;;;;;;;;;;;;;;5036987;28;20006;-21
2023/05/17 03:38:53;;;;;;;;;;;;;;;;;;5036837;28;20367;-23
2023/05/17 03:41:19;;;;;;;;;;;;;;;;;;5036747;28;19915;-22
2023/05/17 03:43:45;;;;;;;;;;;;;;;;;;5036681;28;19931;-20
2023/05/17 03:46:11;;;;;;;;;;;;;;;;;;5036613;28;20263;-19
2023/05/17 03:48:37;;;;;;;;;;;;;;;;;;5036557;28;19909;-20
2023/05/17 03:51:03;;;;;;;;;;;;;;;;;;5036767;28;19909;-20
2023/05/17 03:53:29;;;;;;;;;;;;;;;;;;5036331;28;19917;-22
2023/05/17 03:55:54;;;;;;;;;;;;;;;;;;5036433;28;19985;-21
2023/05/17 03:58:20;;;;;;;;;;;;;;;;;;5036457;28;19963;-21
2023/05/17 04:00:46;;;;;;;;;;;;;;;;;;5036229;28;20336;-20
2023/05/17 04:03:12;;;;;;;;;;;;;;;;;;5036417;28;19909;-20
2023/05/17 04:05:38;;;;;;;;;;;;;;;;;;5034993;28;19990;-20
2023/05/17 04:08:04;;;;;;;;;;;;;;;;;;5035944;28;19963;-23
2023/05/17 04:10:30;;;;;;;;;;;;;;;;;;5034814;28;19909;-21
2023/05/17 04:12:56;;;;;;;;;;;;;;;;;;5035790;28;19948;-19
2023/05/17 04:15:22;;;;;;;;;;;;;;;;;;5034800;28;20300;-20
2023/05/17 04:17:48;;;;;;;;;;;;;;;;;;5035720;28;20241;-19
2023/05/17 04:20:14;;;;;;;;;;;;;;;;;;5034864;28;20317;-21
2023/05/17 04:22:40;;;;;;;;;;;;;;;;;;5035562;28;19912;-22
2023/05/17 04:25:07;;;;;;;;;;;;;;;;;;5035975;28;20280;-22
2023/05/17 04:27:33;;;;;;;;;;;;;;;;;;5035883;28;19921;-22
2023/05/17 04:29:59;;;;;;;;;;;;;;;;;;5035522;28;19915;-20
2023/05/17 04:32:26;;;;;;;;;;;;;;;;;;5035752;28;19909;-22
2023/05/17 04:34:52;;;;;;;;;;;;;;;;;;5035545;28;19963;-21
2023/05/17 04:37:19;;;;;;;;;;;;;;;;;;5035344;28;19909;-20
2023/05/17 04:39:44;;;;;;;;;;;;;;;;;;5035614;28;19978;-20
2023/05/17 04:42:11;;;;;;;;;;;;;;;;;;5035439;28;19913;-19
2023/05/17 04:44:37;;;;;;;;;;;;;;;;;;5035585;28;20024;-19
2023/05/17 04:47:03;;;;;;;;;;;;;;;;;;5035882;28;19916;-21
2023/05/17 04:49:29;;;;;;;;;;;;;;;;;;5035224;28;19909;-20
2023/05/17 04:51:55;;;;;;;;;;;;;;;;;;5035094;28;20360;-20
2023/05/17 04:54:21;;;;;;;;;;;;;;;;;;5035062;28;20034;-21
2023/05/17 04:56:47;;;;;;;;;;;;;;;;;;5034935;28;19991;-20
2023/05/17 04:59:13;;;;;;;;;;;;;;;;;;5035303;28;19920;-20
2023/05/17 05:01:39;;;;;;;;;;;;;;;;;;5035035;28;20012;-21
2023/05/17 05:04:05;;;;;;;;;;;;;;;;;;5034835;28;19936;-22
2023/05/17 05:06:31;;;;;;;;;;;;;;;;;;5035196;28;20415;-22
2023/05/17 05:08:57;;;;;;;;;;;;;;;;;;5035189;28;19948;-22
2023/05/17 05:11:23;;;;;;;;;;;;;;;;;;5035074;28;20341;-21
2023/05/17 05:13:49;;;;;;;;;;;;;;;;;;5034968;28;19913;-20
2023/05/17 05:16:15;;;;;;;;;;;;;;;;;;5034930;28;20000;-19
2023/05/17 05:18:41;;;;;;;;;;;;;;;;;;5034831;28;19916;-24
2023/05/17 05:21:07;;;;;;;;;;;;;;;;;;5034600;28;19910;-20
2023/05/17 05:23:33;;;;;;;;;;;;;;;;;;5034600;28;19909;-21
2023/05/17 05:25:59;;;;;;;;;;;;;;;;;;5034614;28;19949;-20
2023/05/17 05:28:25;;;;;;;;;;;;;;;;;;5034569;28;19924;-20
2023/05/17 05:30:51;;;;;;;;;;;;;;;;;;5034593;28;19909;-20
2023/05/17 05:33:17;;;;;;;;;;;;;;;;;;5034589;28;19963;-22
2023/05/17 05:35:43;;;;;;;;;;;;;;;;;;5034224;28;20086;-23
2023/05/17 05:38:09;;;;;;;;;;;;;;;;;;5034439;28;19908;-21
2023/05/17 05:40:35;;;;;;;;;;;;;;;;;;5033346;28;19913;-21
2023/05/17 05:43:01;;;;;;;;;;;;;;;;;;5034228;28;19909;-21
2023/05/17 05:45:27;;;;;;;;;;;;;;;;;;5034076;28;19956;-20
2023/05/17 05:47:53;;;;;;;;;;;;;;;;;;5033099;28;19939;-20
2023/05/17 05:50:18;;;;;;;;;;;;;;;;;;5033984;28;19944;-21
2023/05/17 05:52:45;;;;;;;;;;;;;;;;;;5034070;28;19979;-20
2023/05/17 05:55:11;;;;;;;;;;;;;;;;;;5033828;28;20284;-22
2023/05/17 05:57:37;;;;;;;;;;;;;;;;;;5032918;28;20404;-20
2023/05/17 06:00:03;;;;;;;;;;;;;;;;;;5032719;28;19956;-21
2023/05/17 06:02:29;;;;;;;;;;;;;;;;;;5033993;28;19944;-20
2023/05/17 06:04:55;;;;;;;;;;;;;;;;;;5032914;28;20288;-21
2023/05/17 06:07:21;;;;;;;;;;;;;;;;;;5034063;28;19909;-21
2023/05/17 06:09:47;;;;;;;;;;;;;;;;;;5034182;28;20000;-20
2023/05/17 06:12:13;;;;;;;;;;;;;;;;;;5033511;28;19909;-20
2023/05/17 06:14:39;;;;;;;;;;;;;;;;;;5032982;28;19920;-20
2023/05/17 06:17:05;;;;;;;;;;;;;;;;;;5033138;28;19909;-22
2023/05/17 06:19:31;;;;;;;;;;;;;;;;;;5033003;28;20373;-22
2023/05/17 06:21:57;;;;;;;;;;;;;;;;;;5032872;28;19909;-21
2023/05/17 06:24:23;;;;;;;;;;;;;;;;;;5033193;28;19909;-20
2023/05/17 06:26:49;;;;;;;;;;;;;;;;;;5033088;28;19989;-23
2023/05/17 06:29:15;;;;;;;;;;;;;;;;;;5033048;28;19924;-23
2023/05/17 06:31:41;;;;;;;;;;;;;;;;;;5032913;28;19959;-21
2023/05/17 06:34:07;;;;;;;;;;;;;;;;;;5031408;28;19971;-21
2023/05/17 06:36:33;;;;;;;;;;;;;;;;;;5033025;28;20233;-21
2023/05/17 06:38:59;;;;;;;;;;;;;;;;;;5033629;28;19917;-20
2023/05/17 06:41:25;;;;;;;;;;;;;;;;;;5033531;28;19913;-20
2023/05/17 06:43:51;;;;;;;;;;;;;;;;;;5032400;28;19960;-22
2023/05/17 06:46:17;;;;;;;;;;;;;;;;;;5033099;28;19909;-21
2023/05/17 06:48:43;;;;;;;;;;;;;;;;;;5033870;28;19909;-21
2023/05/17 06:51:09;;;;;;;;;;;;;;;;;;5033814;28;19909;-20
2023/05/17 06:53:35;;;;;;;;;;;;;;;;;;5036940;28;19917;-20
2023/05/17 06:56:00;;;;;;;;;;;;;;;;;;5037414;28;20004;-22
2023/05/17 06:58:26;;;;;;;;;;;;;;;;;;5037245;28;19909;-22
2023/05/17 07:00:52;;;;;;;;;;;;;;;;;;5037051;28;20253;-20
2023/05/17 07:03:19;;;;;;;;;;;;;;;;;;5037133;28;20245;-21
2023/05/17 07:05:45;;;;;;;;;;;;;;;;;;5036917;28;20049;-20
2023/05/17 07:08:11;;;;;;;;;;;;;;;;;;5037958;28;19917;-22
2023/05/17 07:10:37;;;;;;;;;;;;;;;;;;5036146;28;19956;-22
2023/05/17 07:13:03;;;;;;;;;;;;;;;;;;5037099;28;19917;-21
2023/05/17 07:15:29;;;;;;;;;;;;;;;;;;5036031;28;19913;-21
2023/05/17 07:17:55;;;;;;;;;;;;;;;;;;5037253;28;19913;-21
2023/05/17 07:20:21;;;;;;;;;;;;;;;;;;5037118;28;20141;-20
2023/05/17 07:22:47;;;;;;;;;;;;;;;;;;5036863;28;19984;-22
2023/05/17 07:25:14;;;;;;;;;;;;;;;;;;5036714;28;19910;-24
2023/05/17 07:27:40;;;;;;;;;;;;;;;;;;5036876;28;19991;-21
2023/05/17 07:30:06;;;;;;;;;;;;;;;;;;5036765;28;20319;-25
2023/05/17 07:32:32;;;;;;;;;;;;;;;;;;5037144;28;19992;-21
2023/05/17 07:34:58;;;;;;;;;;;;;;;;;;5036773;28;19983;-21
2023/05/17 07:37:24;;;;;;;;;;;;;;;;;;5036669;28;19956;-21
2023/05/17 07:39:50;;;;;;;;;;;;;;;;;;5036573;28;19944;-21
2023/05/17 07:42:16;;;;;;;;;;;;;;;;;;5036532;28;20301;-22
2023/05/17 07:44:42;;;;;;;;;;;;;;;;;;5036584;28;19917;-23
2023/05/17 07:47:08;;;;;;;;;;;;;;;;;;5036415;28;19943;-22
2023/05/17 07:49:34;;;;;;;;;;;;;;;;;;5036697;28;19909;-21
2023/05/17 07:52:01;;;;;;;;;;;;;;;;;;5035141;28;19909;-20
2023/05/17 07:54:27;;;;;;;;;;;;;;;;;;5036287;28;19925;-22
2023/05/17 07:56:54;;;;;;;;;;;;;;;;;;5036143;28;19917;-21
2023/05/17 07:59:20;;;;;;;;;;;;;;;;;;5036216;28;20064;-21
2023/05/17 08:01:46;;;;;;;;;;;;;;;;;;5035086;28;20367;-20
2023/05/17 08:04:13;;;;;;;;;;;;;;;;;;5034633;28;20375;-22
2023/05/17 08:06:39;;;;;;;;;;;;;;;;;;5035806;28;19920;-22
2023/05/17 08:09:05;;;;;;;;;;;;;;;;;;5036082;28;20000;-22
2023/05/17 08:11:33;;;;;;;;;;;;;;;;;;5035996;28;20027;-21
2023/05/17 08:13:59;;;;;;;;;;;;;;;;;;5035614;28;19966;-22
2023/05/17 08:16:25;;;;;;;;;;;;;;;;;;5035981;28;19921;-24
2023/05/17 08:18:51;;;;;;;;;;;;;;;;;;5034683;28;20035;-22
2023/05/17 08:21:17;;;;;;;;;;;;;;;;;;5035601;28;20367;-22
2023/05/17 08:23:43;;;;;;;;;;;;;;;;;;5036114;28;19909;-20
2023/05/17 08:26:09;;;;;;;;;;;;;;;;;;5034158;28;19915;-21
2023/05/17 08:28:35;;;;;;;;;;;;;;;;;;5035461;28;19959;-21
2023/05/17 08:31:01;;;;;;;;;;;;;;;;;;5035335;28;19909;-22
2023/05/17 08:33:27;;;;;;;;;;;;;;;;;;5034001;28;19909;-22
2023/05/17 08:35:54;;;;;;;;;;;;;;;;;;5035303;28;19921;-21
2023/05/17 08:38:20;;;;;;;;;;;;;;;;;;5035559;28;20284;-21
2023/05/17 08:40:46;;;;;;;;;;;;;;;;;;5035436;28;19948;-21
2023/05/17 08:43:12;;;;;;;;;;;;;;;;;;5034881;28;20256;-22
2023/05/17 08:45:38;;;;;;;;;;;;;;;;;;5035060;28;19909;-21
2023/05/17 08:48:04;;;;;;;;;;;;;;;;;;5033641;28;19958;-21
2023/05/17 08:50:29;;;;;;;;;;;;;;;;;;5034675;28;19913;-22
2023/05/17 08:52:57;;;;;;;;;;;;;;;;;;5034242;28;19920;-22
2023/05/17 08:55:24;;;;;;;;;;;;;;;;;;5034450;28;20016;-22
2023/05/17 08:57:50;;;;;;;;;;;;;;;;;;5034385;28;19920;-21
2023/05/17 09:00:17;;;;;;;;;;;;;;;;;;5034380;28;20004;-22
2023/05/17 09:02:43;;;;;;;;;;;;;;;;;;5034316;28;20015;-21
2023/05/17 09:05:09;;;;;;;;;;;;;;;;;;5034193;28;19975;-22
2023/05/17 09:07:35;;;;;;;;;;;;;;;;;;5034383;28;19912;-22
2023/05/17 09:10:04;;;;;;;;;;;;;;;;;;5034228;28;19909;-20
2023/05/17 09:12:33;;;;;;;;;;;;;;;;;;5033125;28;19966;-23
2023/05/17 09:14:59;;;;;;;;;;;;;;;;;;5034330;28;19920;-20
2023/05/17 09:17:25;;;;;;;;;;;;;;;;;;5033065;28;20271;-21
2023/05/17 09:19:51;;;;;;;;;;;;;;;;;;5034138;28;19944;-21
2023/05/17 09:22:17;;;;;;;;;;;;;;;;;;5034309;28;19914;-23
2023/05/17 09:24:43;;;;;;;;;;;;;;;;;;5034789;28;19909;-22
2023/05/17 09:27:09;;;;;;;;;;;;;;;;;;5034462;28;19921;-21
2023/05/17 09:29:35;;;;;;;;;;;;;;;;;;5033449;28;19944;-20
2023/05/17 09:32:01;;;;;;;;;;;;;;;;;;5034358;28;19909;-21
2023/05/17 09:34:27;;;;;;;;;;;;;;;;;;5034530;28;19991;-20
2023/05/17 09:36:53;;;;;;;;;;;;;;;;;;5034242;28;19910;-22
2023/05/17 09:39:19;;;;;;;;;;;;;;;;;;5032921;28;19917;-21
2023/05/17 09:41:46;;;;;;;;;;;;;;;;;;5034022;28;19909;-22
2023/05/17 09:44:12;;;;;;;;;;;;;;;;;;5034493;28;19986;-21
2023/05/17 09:46:37;;;;;;;;;;;;;;;;;;5034580;28;19988;-19
2023/05/17 09:49:04;;;;;;;;;;;;;;;;;;5034411;28;20235;-21
2023/05/17 09:51:29;;;;;;;;;;;;;;;;;;5034741;28;20043;-20
2023/05/17 09:53:56;;;;;;;;;;;;;;;;;;5034481;28;20395;-22
2023/05/17 09:56:22;;;;;;;;;;;;;;;;;;5033217;28;19909;-20
2023/05/17 09:58:48;;;;;;;;;;;;;;;;;;5034410;28;19908;-21
2023/05/17 10:01:14;;;;;;;;;;;;;;;;;;5034125;28;19920;-20
2023/05/17 10:03:40;;;;;;;;;;;;;;;;;;5032752;28;19909;-21
2023/05/17 10:06:06;;;;;;;;;;;;;;;;;;5034222;28;19917;-20
2023/05/17 10:08:32;;;;;;;;;;;;;;;;;;5033838;28;20372;-21
2023/05/17 10:10:59;;;;;;;;;;;;;;;;;;5032880;28;19960;-23
2023/05/17 10:13:25;;;;;;;;;;;;;;;;;;5032829;28;19913;-21
2023/05/17 10:15:51;;;;;;;;;;;;;;;;;;5033849;28;19915;-23
2023/05/17 10:18:17;;;;;;;;;;;;;;;;;;5034140;28;19951;-23
2023/05/17 10:20:43;;;;;;;;;;;;;;;;;;5034240;28;19976;-20
2023/05/17 10:23:09;;;;;;;;;;;;;;;;;;5033865;28;19916;-19
2023/05/17 10:25:35;;;;;;;;;;;;;;;;;;5034367;28;19951;-20
2023/05/17 10:28:01;;;;;;;;;;;;;;;;;;5036111;28;20333;-21
2023/05/17 10:30:27;;;;;;;;;;;;;;;;;;5037353;28;19932;-22
2023/05/17 10:32:53;;;;;;;;;;;;;;;;;;5036251;28;20004;-22
2023/05/17 10:35:19;;;;;;;;;;;;;;;;;;5037398;28;19921;-23
2023/05/17 10:37:45;;;;;;;;;;;;;;;;;;5036507;28;20268;-19
2023/05/17 10:40:12;;;;;;;;;;;;;;;;;;5037817;28;19909;-20
2023/05/17 10:42:38;;;;;;;;;;;;;;;;;;5037389;28;19991;-20
2023/05/17 10:45:04;;;;;;;;;;;;;;;;;;5037255;28;19963;-19
2023/05/17 10:47:30;;;;;;;;;;;;;;;;;;5037370;28;19910;-22
2023/05/17 10:49:56;;;;;;;;;;;;;;;;;;5037218;28;19968;-22
2023/05/17 10:52:22;;;;;;;;;;;;;;;;;;5037213;28;19983;-21
2023/05/17 10:54:51;;;;;;;;;;;;;;;;;;5037099;28;20273;-19
2023/05/17 10:57:17;;;;;;;;;;;;;;;;;;5035547;28;19971;-22
2023/05/17 10:59:43;;;;;;;;;;;;;;;;;;5036380;28;19948;-21
2023/05/17 11:02:09;;;;;;;;;;;;;;;;;;5036437;28;19909;-21
2023/05/17 11:04:35;;;;;;;;;;;;;;;;;;5036166;28;19925;-19
2023/05/17 11:07:01;;;;;;;;;;;;;;;;;;5036208;28;19909;-24
2023/05/17 11:09:27;;;;;;;;;;;;;;;;;;5036349;28;20256;-21
2023/05/17 11:11:53;;;;;;;;;;;;;;;;;;5035027;28;20066;-22
2023/05/17 11:14:19;;;;;;;;;;;;;;;;;;5036145;28;19969;-22
2023/05/17 11:16:45;;;;;;;;;;;;;;;;;;5034856;28;19916;-20
2023/05/17 11:19:11;;;;;;;;;;;;;;;;;;5035950;28;19909;-20
2023/05/17 11:21:37;;;;;;;;;;;;;;;;;;5034819;28;19959;-20
2023/05/17 11:24:04;;;;;;;;;;;;;;;;;;5036446;28;19909;-22
2023/05/17 11:26:30;;;;;;;;;;;;;;;;;;5036666;28;19913;-23
2023/05/17 11:28:56;;;;;;;;;;;;;;;;;;5036961;28;19932;-22
2023/05/17 11:31:22;;;;;;;;;;;;;;;;;;5036916;28;19975;-22
2023/05/17 11:33:48;;;;;;;;;;;;;;;;;;5036488;28;19917;-22
2023/05/17 11:36:14;;;;;;;;;;;;;;;;;;5036732;28;19996;-20
2023/05/17 11:38:40;;;;;;;;;;;;;;;;;;5034843;28;20344;-20
2023/05/17 11:41:06;;;;;;;;;;;;;;;;;;5036380;28;20000;-21
2023/05/17 11:43:34;;;;;;;;;;;;;;;;;;5036275;28;19916;-23
2023/05/17 11:46:04;;;;;;;;;;;;;;;;;;5036614;28;19978;-22
2023/05/17 11:48:30;;;;;;;;;;;;;;;;;;5036338;28;20293;-21
2023/05/17 11:50:56;;;;;;;;;;;;;;;;;;5036295;28;19909;-22
2023/05/17 11:53:22;;;;;;;;;;;;;;;;;;5036064;28;19936;-19
2023/05/17 11:55:51;;;;;;;;;;;;;;;;;;5036185;28;20324;-22
2023/05/17 11:58:17;;;;;;;;;;;;;;;;;;5036072;28;19913;-22
2023/05/17 12:00:44;;;;;;;;;;;;;;;;;;5036396;28;19910;-22
2023/05/17 12:03:10;;;;;;;;;;;;;;;;;;5035989;28;20007;-22
2023/05/17 12:05:36;;;;;;;;;;;;;;;;;;5035800;28;19987;-19
2023/05/17 12:08:01;;;;;;;;;;;;;;;;;;5035284;28;19916;-21
2023/05/17 12:10:28;;;;;;;;;;;;;;;;;;5036029;28;19916;-21
2023/05/17 12:12:54;;;;;;;;;;;;;;;;;;5034898;28;20260;-22
2023/05/17 12:15:20;;;;;;;;;;;;;;;;;;5034563;28;19920;-22
2023/05/17 12:17:45;;;;;;;;;;;;;;;;;;5035924;28;19910;-22
2023/05/17 12:20:11;;;;;;;;;;;;;;;;;;5035546;28;19909;-20
2023/05/17 12:22:37;;;;;;;;;;;;;;;;;;5035489;28;19916;-21
2023/05/17 12:25:03;;;;;;;;;;;;;;;;;;5035454;28;20297;-19
2023/05/17 12:27:30;;;;;;;;;;;;;;;;;;5035468;28;20260;-22
2023/05/17 12:29:56;;;;;;;;;;;;;;;;;;5034556;28;19909;-20
2023/05/17 12:32:22;;;;;;;;;;;;;;;;;;5035486;28;20392;-22
2023/05/17 12:34:48;;;;;;;;;;;;;;;;;;5035444;28;19913;-21
2023/05/17 12:37:14;;;;;;;;;;;;;;;;;;5035387;28;19916;-20
2023/05/17 12:39:40;;;;;;;;;;;;;;;;;;5035158;28;19909;-19
2023/05/17 12:42:06;;;;;;;;;;;;;;;;;;5035352;28;19916;-20
2023/05/17 12:44:32;;;;;;;;;;;;;;;;;;5035124;28;20332;-22
2023/05/17 12:46:58;;;;;;;;;;;;;;;;;;5034958;28;20256;-22
2023/05/17 12:49:24;;;;;;;;;;;;;;;;;;5034393;28;19909;-21
2023/05/17 12:51:50;;;;;;;;;;;;;;;;;;5034799;28;20300;-22
2023/05/17 12:54:16;;;;;;;;;;;;;;;;;;5034767;28;19913;-19
2023/05/17 12:56:43;;;;;;;;;;;;;;;;;;5034791;28;19941;-20
2023/05/17 12:59:09;;;;;;;;;;;;;;;;;;5035045;28;20034;-20
2023/05/17 13:01:35;;;;;;;;;;;;;;;;;;5034790;28;19939;-21
2023/05/17 13:04:01;;;;;;;;;;;;;;;;;;5034650;28;19976;-23
2023/05/17 13:06:27;;;;;;;;;;;;;;;;;;5034055;28;20344;-21
2023/05/17 13:08:53;;;;;;;;;;;;;;;;;;5033838;28;19910;-20
2023/05/17 13:11:19;;;;;;;;;;;;;;;;;;5035002;28;19909;-20
2023/05/17 13:13:45;;;;;;;;;;;;;;;;;;5034906;28;19913;-20
2023/05/17 13:16:10;;;;;;;;;;;;;;;;;;5034785;28;19913;-21
2023/05/17 13:18:36;;;;;;;;;;;;;;;;;;5035013;28;19916;-21
2023/05/17 13:21:02;;;;;;;;;;;;;;;;;;5032995;28;20325;-21
2023/05/17 13:23:28;;;;;;;;;;;;;;;;;;5034203;28;19909;-20
2023/05/17 13:25:54;;;;;;;;;;;;;;;;;;5034290;28;19948;-21
2023/05/17 13:28:20;;;;;;;;;;;;;;;;;;5034859;28;20273;-19
2023/05/17 13:30:50;;;;;;;;;;;;;;;;;;5033523;28;19909;-20
2023/05/17 13:33:16;;;;;;;;;;;;;;;;;;5034513;28;19975;-23
2023/05/17 13:35:42;;;;;;;;;;;;;;;;;;5034500;28;20357;-22
2023/05/17 13:38:08;;;;;;;;;;;;;;;;;;5034666;28;19935;-21
2023/05/17 13:40:34;;;;;;;;;;;;;;;;;;5033980;28;19920;-21
2023/05/17 13:43:00;;;;;;;;;;;;;;;;;;5034773;28;19909;-22
2023/05/17 13:45:26;;;;;;;;;;;;;;;;;;5033205;28;20008;-22
2023/05/17 13:47:52;;;;;;;;;;;;;;;;;;5034403;28;19920;-21
2023/05/17 13:50:19;;;;;;;;;;;;;;;;;;5034020;28;19909;-23
2023/05/17 13:52:45;;;;;;;;;;;;;;;;;;5034457;28;19941;-22
2023/05/17 13:55:11;;;;;;;;;;;;;;;;;;5034171;28;19939;-23
2023/05/17 13:57:37;;;;;;;;;;;;;;;;;;5034208;28;19928;-21
2023/05/17 14:00:04;;;;;;;;;;;;;;;;;;5034067;28;20321;-20
2023/05/17 14:02:30;;;;;;;;;;;;;;;;;;5033135;28;19919;-21
2023/05/17 14:04:56;;;;;;;;;;;;;;;;;;5033866;28;20255;-21
2023/05/17 14:07:22;;;;;;;;;;;;;;;;;;5034214;28;19916;-22
2023/05/17 14:09:48;;;;;;;;;;;;;;;;;;5034007;28;19913;-20
2023/05/17 14:12:15;;;;;;;;;;;;;;;;;;5033960;28;19909;-23
2023/05/17 14:14:40;;;;;;;;;;;;;;;;;;5033864;28;20016;-21
2023/05/17 14:17:06;;;;;;;;;;;;;;;;;;5033996;28;19952;-19
2023/05/17 14:19:32;;;;;;;;;;;;;;;;;;5033644;28;19913;-20
2023/05/17 14:21:58;;;;;;;;;;;;;;;;;;5033620;28;20324;-24
2023/05/17 14:24:24;;;;;;;;;;;;;;;;;;5033611;28;20204;-21
2023/05/17 14:26:50;;;;;;;;;;;;;;;;;;5034068;28;20391;-21
2023/05/17 14:29:16;;;;;;;;;;;;;;;;;;5033569;28;19909;-21
2023/05/17 14:31:42;;;;;;;;;;;;;;;;;;5033926;28;19979;-20
2023/05/17 14:34:08;;;;;;;;;;;;;;;;;;5032643;28;20348;-20
2023/05/17 14:36:35;;;;;;;;;;;;;;;;;;5032580;28;20222;-21
2023/05/17 14:39:02;;;;;;;;;;;;;;;;;;5032469;28;20326;-20
2023/05/17 14:41:28;;;;;;;;;;;;;;;;;;5033471;28;20395;-21
2023/05/17 14:43:54;;;;;;;;;;;;;;;;;;5032166;28;19909;-22
2023/05/17 14:46:20;;;;;;;;;;;;;;;;;;5033462;28;20248;-22
2023/05/17 14:48:46;;;;;;;;;;;;;;;;;;5033155;28;20356;-23
2023/05/17 14:51:12;;;;;;;;;;;;;;;;;;5032050;28;19909;-20
2023/05/17 14:53:38;;;;;;;;;;;;;;;;;;5032375;28;19940;-19
2023/05/17 14:56:04;;;;;;;;;;;;;;;;;;5033392;28;19909;-22
2023/05/17 14:58:30;;;;;;;;;;;;;;;;;;5032890;28;19917;-21
2023/05/17 15:00:57;;;;;;;;;;;;;;;;;;5032952;28;20015;-20
2023/05/17 15:03:23;;;;;;;;;;;;;;;;;;5033019;28;19987;-21
2023/05/17 15:05:49;;;;;;;;;;;;;;;;;;5033059;28;20332;-22
2023/05/17 15:08:15;;;;;;;;;;;;;;;;;;5033230;28;19923;-21
2023/05/17 15:10:42;;;;;;;;;;;;;;;;;;5033108;28;19909;-20
2023/05/17 15:13:08;;;;;;;;;;;;;;;;;;5034068;28;20084;-20
2023/05/17 15:15:34;;;;;;;;;;;;;;;;;;5036132;28;19960;-22
2023/05/17 15:18:00;;;;;;;;;;;;;;;;;;5035761;28;19909;-21
2023/05/17 15:20:26;;;;;;;;;;;;;;;;;;5034627;28;19924;-22
2023/05/17 15:22:52;;;;;;;;;;;;;;;;;;5035867;28;19959;-22
2023/05/17 15:25:17;;;;;;;;;;;;;;;;;;5035642;28;20320;-21
2023/05/17 15:27:44;;;;;;;;;;;;;;;;;;5035443;28;20012;-19
2023/05/17 15:30:10;;;;;;;;;;;;;;;;;;5035457;28;19909;-19
2023/05/17 15:32:36;;;;;;;;;;;;;;;;;;5035427;28;19913;-21
2023/05/17 15:35:04;;;;;;;;;;;;;;;;;;5034109;28;20190;-20
2023/05/17 15:37:30;;;;;;;;;;;;;;;;;;5035968;28;20222;-23
2023/05/17 15:39:56;;;;;;;;;;;;;;;;;;5036083;28;19917;-23
2023/05/17 15:42:22;;;;;;;;;;;;;;;;;;5035725;28;20071;-23
2023/05/17 15:44:48;;;;;;;;;;;;;;;;;;5036103;28;20000;-22
2023/05/17 15:47:14;;;;;;;;;;;;;;;;;;5036077;28;20348;-20
2023/05/17 15:49:40;;;;;;;;;;;;;;;;;;5036294;28;20285;-20
2023/05/17 15:52:06;;;;;;;;;;;;;;;;;;5036507;28;20021;-22
2023/05/17 15:54:32;;;;;;;;;;;;;;;;;;5036594;28;19923;-22
2023/05/17 15:56:58;;;;;;;;;;;;;;;;;;5036437;28;20360;-22
2023/05/17 15:59:24;;;;;;;;;;;;;;;;;;5036142;28;20091;-21
2023/05/17 16:01:50;;;;;;;;;;;;;;;;;;5036283;28;19973;-22
2023/05/17 16:04:16;;;;;;;;;;;;;;;;;;5034982;28;20404;-20
2023/05/17 16:06:42;;;;;;;;;;;;;;;;;;5036296;28;19920;-22
2023/05/17 16:09:08;;;;;;;;;;;;;;;;;;5035867;28;20359;-21
2023/05/17 16:11:34;;;;;;;;;;;;;;;;;;5035943;28;19910;-22
2023/05/17 16:14:00;;;;;;;;;;;;;;;;;;5035910;28;19913;-21
2023/05/17 16:16:26;;;;;;;;;;;;;;;;;;5035112;28;19949;-22
2023/05/17 16:18:52;;;;;;;;;;;;;;;;;;5035939;28;20251;-21
2023/05/17 16:21:18;;;;;;;;;;;;;;;;;;5035847;28;19917;-21
2023/05/17 16:23:45;;;;;;;;;;;;;;;;;;5036067;28;19909;-20
2023/05/17 16:26:12;;;;;;;;;;;;;;;;;;5035655;28;20280;-21
2023/05/17 16:28:37;;;;;;;;;;;;;;;;;;5035757;28;19920;-21
2023/05/17 16:31:06;;;;;;;;;;;;;;;;;;5035937;28;19909;-21
2023/05/17 16:33:32;;;;;;;;;;;;;;;;;;5035698;28;19971;-20
2023/05/17 16:35:58;;;;;;;;;;;;;;;;;;5035556;28;20303;-20
2023/05/17 16:38:25;;;;;;;;;;;;;;;;;;5035842;28;19910;-21